Time;durP1;ratioP1;P1;durP2;ratioP2;P2;SDS_P1;SDS_P2;PMS_P1;PMS_P2;Temp;Humidity;BMP_temperature;BMP_pressure;BME280_temperature;BME280_humidity;BME280_pressure;Samples;Min_cycle;Max_cycle;Signal;HPM_P1;HPM_P2
2023/12/14 00:00:09;;;;;;;16.80;10.35;;;;;;;5.30;100.00;100703.13;5070585;28;20118;-45
2023/12/14 00:02:37;;;;;;;18.15;10.23;;;;;;;5.31;100.00;100716.09;5071768;28;20033;-46
2023/12/14 00:05:06;;;;;;;19.45;11.50;;;;;;;5.32;100.00;100716.97;5070218;28;20040;-45
2023/12/14 00:07:37;;;;;;;17.13;10.73;;;;;;;5.28;100.00;100724.06;5072000;28;20049;-47
2023/12/14 00:10:06;;;;;;;17.52;11.02;;;;;;;5.22;100.00;100726.94;5073069;28;20045;-46
2023/12/14 00:12:36;;;;;;;18.80;11.38;;;;;;;5.19;100.00;100729.69;5072851;28;20510;-47
2023/12/14 00:15:05;;;;;;;19.83;11.95;;;;;;;5.22;100.00;100730.41;5072991;28;20403;-46
2023/12/14 00:17:33;;;;;;;18.73;10.65;;;;;;;5.17;100.00;100740.19;5072794;28;20519;-46
2023/12/14 00:20:02;;;;;;;17.73;11.35;;;;;;;5.12;100.00;100749.13;5071097;28;20052;-46
2023/12/14 00:22:30;;;;;;;19.85;12.55;;;;;;;5.03;100.00;100755.59;5068724;28;20101;-47
2023/12/14 00:25:02;;;;;;;21.23;11.68;;;;;;;5.08;100.00;100754.50;5072719;28;20041;-46
2023/12/14 00:27:30;;;;;;;21.08;12.50;;;;;;;5.15;100.00;100762.03;5072577;28;20049;-46
2023/12/14 00:30:02;;;;;;;22.55;12.48;;;;;;;5.11;100.00;100770.91;5072144;28;20049;-46
2023/12/14 00:32:30;;;;;;;21.83;12.13;;;;;;;5.01;100.00;100776.50;5072289;28;20037;-47
2023/12/14 00:34:59;;;;;;;21.77;12.30;;;;;;;5.01;100.00;100781.72;5072338;28;20640;-49
2023/12/14 00:37:27;;;;;;;21.05;12.18;;;;;;;4.99;100.00;100782.69;5072126;28;20048;-48
2023/12/14 00:39:55;;;;;;;20.58;11.68;;;;;;;5.03;100.00;100787.72;5069708;28;20048;-48
2023/12/14 00:42:24;;;;;;;20.10;11.88;;;;;;;5.04;100.00;100809.41;5067403;28;20056;-49
2023/12/14 00:44:52;;;;;;;23.17;13.40;;;;;;;4.96;100.00;100819.31;5072048;28;20063;-49
2023/12/14 00:47:21;;;;;;;20.15;12.27;;;;;;;4.90;100.00;100813.44;5069962;28;20052;-51
2023/12/14 00:49:50;;;;;;;19.30;11.63;;;;;;;4.90;100.00;100818.66;5069285;28;20048;-46
2023/12/14 00:52:18;;;;;;;19.98;11.63;;;;;;;4.82;100.00;100820.75;5072010;28;20052;-47
2023/12/14 00:54:46;;;;;;;22.52;12.63;;;;;;;4.84;100.00;100823.28;5071784;28;20395;-48
2023/12/14 00:57:14;;;;;;;20.50;12.85;;;;;;;4.80;100.00;100826.94;5071873;28;20056;-46
2023/12/14 00:59:42;;;;;;;20.92;12.02;;;;;;;4.86;100.00;100827.53;5071971;28;20040;-45
2023/12/14 01:02:10;;;;;;;22.30;12.43;;;;;;;4.85;100.00;100840.63;5070509;28;20048;-46
2023/12/14 01:04:40;;;;;;;20.25;11.85;;;;;;;4.82;100.00;100839.00;5072222;28;20642;-56
2023/12/14 01:07:09;;;;;;;23.05;12.43;;;;;;;4.85;100.00;100841.50;5071388;28;20045;-55
2023/12/14 01:09:37;;;;;;;22.10;13.10;;;;;;;4.84;100.00;100850.22;5069167;28;20119;-55
2023/12/14 01:12:05;;;;;;;18.88;11.63;;;;;;;4.84;100.00;100854.56;5067455;28;20053;-55
2023/12/14 01:14:34;;;;;;;20.02;11.98;;;;;;;4.84;100.00;100858.03;5069151;28;20045;-55
2023/12/14 01:17:02;;;;;;;20.23;12.38;;;;;;;4.79;100.00;100861.75;5071701;28;20033;-54
2023/12/14 01:19:31;;;;;;;18.83;11.73;;;;;;;4.77;100.00;100856.56;5071097;28;20040;-55
2023/12/14 01:22:00;;;;;;;18.55;11.30;;;;;;;4.78;100.00;100860.03;5069349;28;20040;-54
2023/12/14 01:24:28;;;;;;;19.10;11.02;;;;;;;4.77;100.00;100866.16;5070030;28;20050;-55
2023/12/14 01:26:56;;;;;;;20.27;12.40;;;;;;;4.76;100.00;100862.69;5071804;28;20542;-55
2023/12/14 01:29:24;;;;;;;20.50;11.77;;;;;;;4.82;100.00;100865.03;5071658;28;20048;-55
2023/12/14 01:31:53;;;;;;;19.70;11.43;;;;;;;4.82;100.00;100872.03;5071744;28;20114;-55
2023/12/14 01:34:21;;;;;;;20.83;12.98;;;;;;;4.75;100.00;100876.63;5070437;28;20086;-55
2023/12/14 01:36:49;;;;;;;19.90;11.70;;;;;;;4.80;100.00;100873.84;5068924;28;20048;-55
2023/12/14 01:39:19;;;;;;;19.00;11.75;;;;;;;4.75;100.00;100892.28;5068938;28;20419;-54
2023/12/14 01:41:49;;;;;;;17.95;11.40;;;;;;;4.68;100.00;100891.66;5072582;28;20143;-54
2023/12/14 01:44:17;;;;;;;18.05;11.00;;;;;;;4.69;100.00;100909.00;5074543;28;20139;-55
2023/12/14 01:46:45;;;;;;;18.45;11.05;;;;;;;4.68;100.00;100911.66;5075739;28;20053;-54
2023/12/14 01:49:13;;;;;;;17.80;10.98;;;;;;;4.76;100.00;100904.41;5075686;28;20048;-56
2023/12/14 01:51:41;;;;;;;18.42;10.10;;;;;;;4.64;100.00;100913.53;5075579;28;20420;-56
2023/12/14 01:54:09;;;;;;;19.85;10.93;;;;;;;4.66;100.00;100923.91;5075770;28;20098;-56
2023/12/14 01:56:40;;;;;;;19.10;11.15;;;;;;;4.67;100.00;100928.19;5075588;28;20079;-56
2023/12/14 01:59:10;;;;;;;18.40;11.38;;;;;;;4.62;100.00;100932.72;5075478;28;20056;-56
2023/12/14 02:01:42;;;;;;;18.85;11.60;;;;;;;4.62;100.00;100937.94;5075341;28;20044;-55
2023/12/14 02:04:11;;;;;;;19.25;11.70;;;;;;;4.63;100.00;100937.03;5075025;28;20131;-56
2023/12/14 02:06:39;;;;;;;17.88;11.30;;;;;;;4.64;100.00;100947.41;5075227;28;20403;-55
2023/12/14 02:09:08;;;;;;;17.55;10.23;;;;;;;4.66;100.00;100937.78;5072773;28;20048;-57
2023/12/14 02:11:36;;;;;;;17.20;10.70;;;;;;;4.64;100.00;100943.97;5072525;28;20041;-55
2023/12/14 02:14:06;;;;;;;19.40;11.48;;;;;;;4.67;100.00;100944.66;5073838;28;20156;-55
2023/12/14 02:16:38;;;;;;;16.27;10.20;;;;;;;4.66;100.00;100948.22;5072561;28;20048;-55
2023/12/14 02:19:07;;;;;;;17.08;10.68;;;;;;;4.65;100.00;100956.06;5072389;28;20060;-54
2023/12/14 02:21:35;;;;;;;16.90;11.27;;;;;;;4.65;100.00;100958.66;5072443;28;20103;-54
2023/12/14 02:24:05;;;;;;;16.33;10.88;;;;;;;4.66;100.00;100968.19;5074797;28;20040;-56
2023/12/14 02:26:33;;;;;;;17.98;11.02;;;;;;;4.64;100.00;100970.00;5074943;28;20102;-55
2023/12/14 02:29:02;;;;;;;18.88;10.98;;;;;;;4.65;100.00;100972.56;5074530;28;20045;-54
2023/12/14 02:31:30;;;;;;;16.63;10.38;;;;;;;4.62;100.00;100977.03;5073035;28;20617;-56
2023/12/14 02:33:58;;;;;;;18.48;11.05;;;;;;;4.64;100.00;100977.84;5070604;28;20064;-57
2023/12/14 02:36:26;;;;;;;18.35;11.23;;;;;;;4.65;100.00;100985.59;5072475;28;20048;-54
2023/12/14 02:38:54;;;;;;;19.20;11.82;;;;;;;4.64;100.00;100996.91;5073529;28;20036;-53
2023/12/14 02:41:24;;;;;;;17.13;10.80;;;;;;;4.55;100.00;100994.63;5074734;28;20098;-55
2023/12/14 02:43:52;;;;;;;18.00;11.82;;;;;;;4.61;100.00;101009.19;5074372;28;20079;-54
2023/12/14 02:46:20;;;;;;;18.75;11.75;;;;;;;4.55;100.00;101008.53;5071960;28;20083;-54
2023/12/14 02:48:48;;;;;;;18.08;10.65;;;;;;;4.63;100.00;101008.22;5071620;28;20059;-54
2023/12/14 02:51:17;;;;;;;18.00;11.00;;;;;;;4.65;100.00;101011.63;5070664;28;20052;-55
2023/12/14 02:53:45;;;;;;;18.52;10.75;;;;;;;4.62;100.00;101010.88;5073768;28;20549;-54
2023/12/14 02:56:13;;;;;;;19.45;11.40;;;;;;;4.53;100.00;101018.16;5074426;28;20072;-55
2023/12/14 02:58:42;;;;;;;17.88;11.23;;;;;;;4.56;100.00;101023.22;5074821;28;20056;-53
2023/12/14 03:01:13;;;;;;;18.48;11.45;;;;;;;4.53;100.00;101027.72;5071185;28;20471;-54
2023/12/14 03:03:41;;;;;;;18.45;11.23;;;;;;;4.54;100.00;101025.06;5070353;28;20168;-56
2023/12/14 03:06:10;;;;;;;18.20;10.70;;;;;;;4.57;100.00;101035.34;5072183;28;20055;-56
2023/12/14 03:08:38;;;;;;;16.77;10.13;;;;;;;4.57;100.00;101037.97;5074237;28;20056;-56
2023/12/14 03:11:06;;;;;;;19.83;11.77;;;;;;;4.63;100.00;101039.50;5074307;28;20137;-54
2023/12/14 03:13:34;;;;;;;18.83;11.18;;;;;;;4.65;100.00;101055.06;5073922;28;20048;-54
2023/12/14 03:16:05;;;;;;;17.08;10.63;;;;;;;4.66;100.00;101059.38;5073648;28;20423;-53
2023/12/14 03:18:33;;;;;;;17.98;11.38;;;;;;;4.64;100.00;101056.00;5070950;28;20410;-55
2023/12/14 03:21:04;;;;;;;18.40;11.25;;;;;;;4.62;100.00;101060.38;5073169;28;20044;-54
2023/12/14 03:23:33;;;;;;;19.48;10.73;;;;;;;4.62;100.00;101065.59;5074440;28;20051;-51
2023/12/14 03:26:02;;;;;;;16.75;9.50;;;;;;;4.55;100.00;101065.84;5073656;28;20052;-54
2023/12/14 03:28:30;;;;;;;15.85;10.05;;;;;;;4.53;100.00;101070.25;5074277;28;20455;-55
2023/12/14 03:30:59;;;;;;;16.92;9.93;;;;;;;4.52;100.00;101068.53;5072571;28;20044;-57
2023/12/14 03:33:29;;;;;;;16.10;9.73;;;;;;;4.54;100.00;101071.94;5072058;28;20102;-54
2023/12/14 03:35:58;;;;;;;15.32;10.10;;;;;;;4.50;100.00;101064.28;5073829;28;20041;-54
2023/12/14 03:38:27;;;;;;;16.95;10.25;;;;;;;4.47;100.00;101067.88;5071263;28;20078;-55
2023/12/14 03:40:55;;;;;;;14.23;9.55;;;;;;;4.44;100.00;101065.34;5071823;28;20048;-55
2023/12/14 03:43:23;;;;;;;14.48;9.43;;;;;;;4.48;100.00;101074.75;5072539;28;20479;-54
2023/12/14 03:45:51;;;;;;;17.45;10.20;;;;;;;4.46;100.00;101071.38;5070717;28;20050;-54
2023/12/14 03:48:20;;;;;;;15.75;10.07;;;;;;;4.45;100.00;101077.47;5070944;28;20568;-56
2023/12/14 03:50:50;;;;;;;15.77;10.45;;;;;;;4.49;100.00;101078.25;5072853;28;20084;-53
2023/12/14 03:53:18;;;;;;;15.20;9.63;;;;;;;4.46;100.00;101083.53;5071217;28;20059;-54
2023/12/14 03:55:46;;;;;;;15.52;9.43;;;;;;;4.47;100.00;101088.72;5070413;28;20044;-54
2023/12/14 03:58:15;;;;;;;15.00;9.95;;;;;;;4.46;100.00;101099.16;5069118;28;20049;-54
2023/12/14 04:00:43;;;;;;;14.80;9.68;;;;;;;4.43;100.00;101096.66;5072173;28;20063;-54
2023/12/14 04:03:11;;;;;;;14.85;9.93;;;;;;;4.43;100.00;101097.53;5071880;28;20070;-55
2023/12/14 04:05:44;;;;;;;17.80;10.43;;;;;;;4.45;100.00;101098.31;5070668;28;20522;-55
2023/12/14 04:08:13;;;;;;;14.27;9.57;;;;;;;4.45;100.00;101103.53;5069840;28;20048;-54
2023/12/14 04:10:41;;;;;;;13.82;9.38;;;;;;;4.43;100.00;101107.09;5070057;28;20507;-54
2023/12/14 04:13:10;;;;;;;14.68;9.52;;;;;;;4.42;100.00;101108.84;5068137;28;20059;-55
2023/12/14 04:15:38;;;;;;;13.63;9.40;;;;;;;4.46;100.00;101112.19;5070651;28;20388;-54
2023/12/14 04:18:08;;;;;;;13.45;9.70;;;;;;;4.44;100.00;101112.25;5072573;28;20036;-55
2023/12/14 04:20:36;;;;;;;15.73;9.98;;;;;;;4.47;100.00;101116.50;5068840;28;20056;-56
2023/12/14 04:23:05;;;;;;;14.50;9.57;;;;;;;4.49;100.00;101119.91;5069830;28;20044;-56
2023/12/14 04:25:36;;;;;;;14.77;9.77;;;;;;;4.48;100.00;101116.44;5069701;28;20055;-55
2023/12/14 04:28:05;;;;;;;14.02;9.02;;;;;;;4.48;100.00;101124.25;5068082;28;20058;-52
2023/12/14 04:30:33;;;;;;;13.90;9.52;;;;;;;4.51;100.00;101125.91;5069481;28;20056;-55
2023/12/14 04:33:01;;;;;;;15.40;9.75;;;;;;;4.50;100.00;101127.66;5068650;28;20048;-46
2023/12/14 04:35:31;;;;;;;14.40;9.18;;;;;;;4.48;100.00;101126.03;5072322;28;20537;-46
2023/12/14 04:37:59;;;;;;;13.60;9.50;;;;;;;4.41;100.00;101127.97;5070761;28;20040;-47
2023/12/14 04:40:27;;;;;;;14.20;9.30;;;;;;;4.42;100.00;101127.09;5069278;28;20380;-50
2023/12/14 04:42:56;;;;;;;14.43;9.30;;;;;;;4.40;100.00;101137.56;5067275;28;20423;-49
2023/12/14 04:45:27;;;;;;;14.32;9.43;;;;;;;4.42;100.00;101140.09;5068680;28;20117;-49
2023/12/14 04:47:55;;;;;;;15.27;10.07;;;;;;;4.48;100.00;101152.91;5072027;28;20056;-49
2023/12/14 04:50:24;;;;;;;16.55;10.15;;;;;;;4.48;100.00;101159.88;5071931;28;20067;-45
2023/12/14 04:52:52;;;;;;;15.30;9.85;;;;;;;4.49;100.00;101166.78;5071835;28;20044;-46
2023/12/14 04:55:22;;;;;;;14.77;10.02;;;;;;;4.43;100.00;101165.25;5071995;28;20087;-46
2023/12/14 04:57:50;;;;;;;14.63;9.27;;;;;;;4.45;100.00;101176.47;5071841;28;20044;-45
2023/12/14 05:00:20;;;;;;;14.13;9.60;;;;;;;4.47;100.00;101181.63;5071820;28;20442;-46
2023/12/14 05:02:49;;;;;;;14.90;10.13;;;;;;;4.48;100.00;101186.75;5071669;28;20055;-45
2023/12/14 05:05:17;;;;;;;15.10;10.07;;;;;;;4.50;100.00;101194.53;5071836;28;20048;-44
2023/12/14 05:07:45;;;;;;;15.65;10.65;;;;;;;4.50;100.00;101200.59;5071956;28;20036;-46
2023/12/14 05:10:14;;;;;;;14.05;9.82;;;;;;;4.53;100.00;101199.66;5071915;28;20080;-45
2023/12/14 05:12:42;;;;;;;14.13;9.90;;;;;;;4.51;100.00;101211.88;5071567;28;20055;-45
2023/12/14 05:15:11;;;;;;;14.50;9.43;;;;;;;4.52;100.00;101218.78;5068174;28;20396;-46
2023/12/14 05:17:41;;;;;;;13.85;9.82;;;;;;;4.55;100.00;101219.53;5070186;28;20048;-45
2023/12/14 05:20:10;;;;;;;15.88;10.00;;;;;;;4.51;100.00;101220.53;5071808;28;20068;-46
2023/12/14 05:22:38;;;;;;;15.13;10.18;;;;;;;4.54;100.00;101232.59;5071635;28;20102;-46
2023/12/14 05:25:07;;;;;;;15.45;9.70;;;;;;;4.54;100.00;101235.19;5067121;28;20059;-45
2023/12/14 05:27:35;;;;;;;14.50;9.15;;;;;;;4.48;100.00;101241.47;5067584;28;20052;-47
2023/12/14 05:30:04;;;;;;;16.20;10.50;;;;;;;4.47;100.00;101246.72;5069834;28;20044;-45
2023/12/14 05:32:32;;;;;;;13.75;8.95;;;;;;;4.44;100.00;101239.88;5067277;28;20423;-45
2023/12/14 05:35:02;;;;;;;15.05;9.48;;;;;;;4.44;100.00;101242.47;5070700;28;20028;-48
2023/12/14 05:37:31;;;;;;;15.27;10.13;;;;;;;4.45;100.00;101248.56;5071469;28;20057;-45
2023/12/14 05:39:59;;;;;;;13.52;8.63;;;;;;;4.42;100.00;101249.50;5071237;28;20465;-46
2023/12/14 05:42:27;;;;;;;15.65;9.57;;;;;;;4.40;100.00;101253.88;5071631;28;20040;-46
2023/12/14 05:44:55;;;;;;;15.57;10.43;;;;;;;4.37;100.00;101261.81;5069902;28;20041;-46
2023/12/14 05:47:25;;;;;;;14.95;9.32;;;;;;;4.39;100.00;101271.28;5068186;28;20785;-48
2023/12/14 05:49:56;;;;;;;16.50;10.13;;;;;;;4.41;100.00;101279.03;5069621;28;20512;-46
2023/12/14 05:52:25;;;;;;;13.15;8.65;;;;;;;4.42;100.00;101280.75;5071611;28;20060;-46
2023/12/14 05:54:56;;;;;;;16.73;9.75;;;;;;;4.37;100.00;101290.47;5071412;28;20044;-46
2023/12/14 05:57:24;;;;;;;13.43;8.88;;;;;;;4.37;100.00;101304.31;5071345;28;20045;-46
2023/12/14 05:59:53;;;;;;;15.60;9.35;;;;;;;4.36;100.00;101307.84;5071216;28;20045;-45
2023/12/14 06:02:23;;;;;;;15.88;8.57;;;;;;;4.35;100.00;101310.47;5071166;28;20495;-45
2023/12/14 06:04:52;;;;;;;14.32;9.18;;;;;;;4.38;100.00;101326.88;5071250;28;20526;-45
2023/12/14 06:07:20;;;;;;;14.52;8.73;;;;;;;4.36;100.00;101326.09;5071252;28;20048;-47
2023/12/14 06:09:49;;;;;;;13.30;8.65;;;;;;;4.38;100.00;101326.03;5071234;28;20388;-50
2023/12/14 06:12:20;;;;;;;15.23;9.40;;;;;;;4.36;100.00;101336.50;5071438;28;20057;-50
2023/12/14 06:14:48;;;;;;;13.43;8.15;;;;;;;4.36;100.00;101327.81;5071195;28;20040;-46
2023/12/14 06:17:18;;;;;;;13.75;8.88;;;;;;;4.34;100.00;101330.47;5071457;28;20384;-49
2023/12/14 06:19:47;;;;;;;13.00;8.50;;;;;;;4.34;100.00;101335.69;5070062;28;20551;-48
2023/12/14 06:22:15;;;;;;;13.60;8.85;;;;;;;4.35;100.00;101346.94;5067826;28;20457;-48
2023/12/14 06:24:43;;;;;;;15.60;8.50;;;;;;;4.27;100.00;101351.53;5070148;28;20091;-47
2023/12/14 06:27:13;;;;;;;13.38;8.30;;;;;;;4.28;100.00;101356.72;5070358;28;20037;-50
2023/12/14 06:29:41;;;;;;;13.80;8.45;;;;;;;4.34;100.00;101361.72;5070151;28;20059;-45
2023/12/14 06:32:10;;;;;;;13.93;8.50;;;;;;;4.32;100.00;101357.47;5070257;28;20525;-46
2023/12/14 06:34:38;;;;;;;13.68;7.82;;;;;;;4.35;100.00;101359.97;5071854;28;20547;-47
2023/12/14 06:37:07;;;;;;;14.65;8.55;;;;;;;4.37;100.00;101368.59;5073184;28;20072;-48
2023/12/14 06:39:36;;;;;;;12.93;8.25;;;;;;;4.38;100.00;101371.16;5074543;28;20083;-46
2023/12/14 06:42:04;;;;;;;13.82;7.63;;;;;;;4.35;100.00;101384.28;5074535;28;20455;-46
2023/12/14 06:44:34;;;;;;;14.05;8.93;;;;;;;4.36;100.00;101387.72;5074396;28;20127;-46
2023/12/14 06:47:04;;;;;;;12.63;7.60;;;;;;;4.35;100.00;101391.22;5073036;28;20049;-45
2023/12/14 06:49:32;;;;;;;12.25;7.40;;;;;;;4.35;100.00;101401.63;5072910;28;21038;-47
2023/12/14 06:52:01;;;;;;;12.25;8.10;;;;;;;4.34;100.00;101402.56;5074660;28;20041;-47
2023/12/14 06:54:29;;;;;;;11.73;6.88;;;;;;;4.28;100.00;101405.31;5074247;28;20056;-46
2023/12/14 06:56:57;;;;;;;11.35;6.45;;;;;;;4.22;100.00;101402.00;5073825;28;20049;-48
2023/12/14 06:59:25;;;;;;;10.90;6.55;;;;;;;4.25;100.00;101401.06;5074176;28;20068;-46
2023/12/14 07:01:55;;;;;;;10.88;6.45;;;;;;;4.20;100.00;101406.41;5074155;28;20040;-46
2023/12/14 07:04:23;;;;;;;13.32;6.88;;;;;;;4.19;100.00;101402.09;5072094;28;20113;-48
2023/12/14 07:06:52;;;;;;;11.15;6.25;;;;;;;4.19;100.00;101402.09;5070504;28;20036;-45
2023/12/14 07:09:20;;;;;;;12.75;6.55;;;;;;;4.24;100.00;101409.78;5074257;28;20060;-46
2023/12/14 07:11:48;;;;;;;10.10;5.85;;;;;;;4.22;100.00;101419.38;5072891;28;20040;-55
2023/12/14 07:14:19;;;;;;;10.95;5.70;;;;;;;4.15;100.00;101418.72;5074303;28;20048;-53
2023/12/14 07:16:51;;;;;;;10.32;5.65;;;;;;;4.14;100.00;101429.16;5074085;28;20051;-55
2023/12/14 07:19:20;;;;;;;10.60;5.88;;;;;;;4.14;100.00;101447.38;5074032;28;20048;-54
2023/12/14 07:21:48;;;;;;;10.68;6.18;;;;;;;4.15;100.00;101446.50;5069639;28;20044;-55
2023/12/14 07:24:17;;;;;;;12.13;6.20;;;;;;;4.19;100.00;101455.94;5070121;28;20040;-55
2023/12/14 07:26:45;;;;;;;10.27;5.75;;;;;;;4.21;100.00;101449.78;5073936;28;20041;-55
2023/12/14 07:29:13;;;;;;;10.18;5.68;;;;;;;4.14;100.00;101458.66;5072466;28;20098;-53
2023/12/14 07:31:41;;;;;;;10.05;5.60;;;;;;;4.07;100.00;101460.56;5074042;28;20523;-53
2023/12/14 07:34:10;;;;;;;10.13;5.50;;;;;;;4.05;100.00;101462.38;5073728;28;20044;-56
2023/12/14 07:36:42;;;;;;;11.70;5.90;;;;;;;4.07;100.00;101467.53;5073678;28;20056;-55
2023/12/14 07:39:12;;;;;;;10.05;5.53;;;;;;;4.10;100.00;101467.44;5073539;28;20056;-52
2023/12/14 07:41:40;;;;;;;9.82;5.53;;;;;;;4.12;100.00;101477.81;5073526;28;20098;-54
2023/12/14 07:44:08;;;;;;;10.35;5.22;;;;;;;4.10;100.00;101488.28;5073373;28;20040;-53
2023/12/14 07:46:39;;;;;;;9.60;5.10;;;;;;;4.07;100.00;101488.38;5073289;28;20047;-55
2023/12/14 07:49:07;;;;;;;9.27;4.95;;;;;;;4.06;100.00;101491.84;5073326;28;20059;-56
2023/12/14 07:51:35;;;;;;;8.88;4.82;;;;;;;4.07;100.00;101489.22;5073475;28;20048;-56
2023/12/14 07:54:05;;;;;;;10.02;5.45;;;;;;;4.05;100.00;101493.63;5073014;28;20052;-54
2023/12/14 07:56:33;;;;;;;8.95;5.03;;;;;;;4.00;100.00;101492.03;5072784;28;20553;-56
2023/12/14 07:59:03;;;;;;;9.27;5.22;;;;;;;3.99;100.00;101504.19;5069813;28;20080;-53
2023/12/14 08:01:31;;;;;;;9.38;5.07;;;;;;;3.97;100.00;101516.41;5070094;28;20059;-56
2023/12/14 08:04:00;;;;;;;10.43;5.25;;;;;;;3.97;100.00;101531.19;5073060;28;20052;-54
2023/12/14 08:06:28;;;;;;;9.90;5.63;;;;;;;3.99;100.00;101534.56;5071687;28;20144;-54
2023/12/14 08:08:57;;;;;;;9.55;5.03;;;;;;;3.97;100.00;101534.63;5073168;28;20058;-55
2023/12/14 08:11:28;;;;;;;10.70;4.95;;;;;;;3.94;100.00;101539.03;5072986;28;20055;-55
2023/12/14 08:13:56;;;;;;;10.80;5.88;;;;;;;3.88;100.00;101545.25;5071830;28;20052;-54
2023/12/14 08:16:24;;;;;;;9.30;4.90;;;;;;;3.96;100.00;101551.13;5072989;28;20048;-54
2023/12/14 08:18:52;;;;;;;13.20;5.25;;;;;;;3.91;100.00;101554.75;5072982;28;20510;-54
2023/12/14 08:21:20;;;;;;;8.15;4.45;;;;;;;3.91;100.00;101566.00;5073054;28;20502;-47
2023/12/14 08:23:48;;;;;;;8.98;4.72;;;;;;;3.89;100.00;101563.44;5072728;28;20048;-47
2023/12/14 08:26:17;;;;;;;8.10;4.72;;;;;;;3.88;100.00;101569.53;5072707;28;20051;-48
2023/12/14 08:28:47;;;;;;;9.60;4.78;;;;;;;3.85;100.00;101567.00;5072542;28;20056;-46
2023/12/14 08:31:15;;;;;;;8.77;4.63;;;;;;;3.85;100.00;101574.81;5072757;28;20871;-47
2023/12/14 08:33:43;;;;;;;9.07;4.78;;;;;;;3.88;100.00;101576.50;5072677;28;20045;-45
2023/12/14 08:36:16;;;;;;;;;;;;;;;3.89;100.00;101581.66;5071786;28;20411;-46
2023/12/14 08:38:44;;;;;;;9.73;4.90;;;;;;;3.93;100.00;101590.25;5072406;28;20421;-48
2023/12/14 08:41:14;;;;;;;9.65;4.97;;;;;;;3.91;100.00;101588.56;5068970;28;20051;-47
2023/12/14 08:43:43;;;;;;;10.40;5.10;;;;;;;3.94;100.00;101596.31;5069212;28;20110;-48
2023/12/14 08:46:12;;;;;;;8.98;4.88;;;;;;;3.95;100.00;101598.00;5072385;28;20045;-47
2023/12/14 08:48:41;;;;;;;9.52;5.35;;;;;;;3.92;100.00;101603.31;5072076;28;20076;-45
2023/12/14 08:51:09;;;;;;;8.50;4.75;;;;;;;3.93;100.00;101603.25;5067403;28;20114;-48
2023/12/14 08:53:38;;;;;;;9.75;5.60;;;;;;;3.97;100.00;101612.72;5069341;28;20526;-47
2023/12/14 08:56:07;;;;;;;10.73;5.40;;;;;;;3.98;100.00;101613.53;5072071;28;20047;-46
2023/12/14 08:58:35;;;;;;;9.20;5.22;;;;;;;4.00;100.00;101617.81;5072078;28;20048;-46
2023/12/14 09:01:04;;;;;;;9.75;5.78;;;;;;;4.02;100.00;101621.25;5072138;28;20040;-47
2023/12/14 09:03:33;;;;;;;10.73;5.72;;;;;;;4.04;100.00;101618.63;5072084;28;20064;-56
2023/12/14 09:06:05;;;;;;;10.95;6.18;;;;;;;4.03;100.00;101627.31;5071952;28;20060;-56
2023/12/14 09:08:33;;;;;;;9.48;5.40;;;;;;;4.02;100.00;101626.47;5071848;28;20083;-56
2023/12/14 09:11:02;;;;;;;9.38;5.60;;;;;;;4.03;100.00;101637.72;5071847;28;20041;-55
2023/12/14 09:13:30;;;;;;;8.85;5.50;;;;;;;4.05;100.00;101646.38;5071946;28;20048;-55
2023/12/14 09:15:58;;;;;;;9.63;5.35;;;;;;;4.02;100.00;101647.28;5071800;28;20033;-54
2023/12/14 09:18:27;;;;;;;9.38;5.63;;;;;;;4.06;100.00;101642.84;5071573;28;20809;-57
2023/12/14 09:20:56;;;;;;;9.32;5.05;;;;;;;4.03;100.00;101648.13;5068814;28;20056;-54
2023/12/14 09:23:24;;;;;;;11.82;6.25;;;;;;;4.04;100.00;101653.28;5070129;28;20562;-56
2023/12/14 09:25:53;;;;;;;9.95;5.63;;;;;;;4.05;100.00;101648.97;5070594;28;20052;-46
2023/12/14 09:28:21;;;;;;;11.63;5.80;;;;;;;4.02;100.00;101656.81;5071513;28;20123;-47
2023/12/14 09:30:49;;;;;;;10.07;5.70;;;;;;;4.07;100.00;101661.03;5070988;28;20045;-49
2023/12/14 09:33:18;;;;;;;10.18;5.93;;;;;;;4.10;100.00;101664.47;5071194;28;20511;-50
2023/12/14 09:35:46;;;;;;;9.90;5.88;;;;;;;4.12;100.00;101663.53;5071374;28;20154;-45
2023/12/14 09:38:17;;;;;;;14.23;6.68;;;;;;;4.05;100.00;101669.78;5071308;28;20044;-46
2023/12/14 09:40:45;;;;;;;12.52;6.90;;;;;;;4.07;100.00;101668.84;5071659;28;20049;-47
2023/12/14 09:43:14;;;;;;;11.00;6.68;;;;;;;4.02;100.00;101669.84;5071090;28;20491;-45
2023/12/14 09:45:44;;;;;;;13.05;6.13;;;;;;;4.03;100.00;101675.00;5068628;28;20048;-47
2023/12/14 09:48:14;;;;;;;10.00;5.55;;;;;;;4.04;100.00;101681.09;5069140;28;20075;-47
2023/12/14 09:50:44;;;;;;;10.30;6.13;;;;;;;4.06;100.00;101694.91;5071374;28;20072;-47
2023/12/14 09:53:13;;;;;;;10.07;5.82;;;;;;;4.06;100.00;101702.72;5071609;28;20052;-45
2023/12/14 09:55:43;;;;;;;12.75;6.50;;;;;;;4.10;100.00;101699.16;5071457;28;20091;-46
2023/12/14 09:58:12;;;;;;;10.38;6.28;;;;;;;4.13;100.00;101698.22;5071565;28;20483;-47
2023/12/14 10:00:42;;;;;;;10.80;6.07;;;;;;;4.19;100.00;101701.53;5070169;28;20040;-46
2023/12/14 10:03:22;;;;;;;13.02;6.40;;;;;;;4.20;100.00;101705.84;5070822;28;20048;-46
2023/12/14 10:05:51;;;;;;;11.55;5.97;;;;;;;4.23;100.00;101705.78;5074615;28;20119;-48
2023/12/14 10:08:20;;;;;;;13.20;6.63;;;;;;;4.25;100.00;101720.50;5070855;28;20098;-47
2023/12/14 10:10:52;;;;;;;10.20;6.20;;;;;;;4.23;100.00;101718.78;5072006;28;20044;-45
2023/12/14 10:13:23;;;;;;;10.57;6.07;;;;;;;4.26;100.00;101725.69;5073133;28;20045;-45
2023/12/14 10:15:52;;;;;;;11.05;6.88;;;;;;;4.20;100.00;101731.91;5074410;28;20055;-53
2023/12/14 10:18:24;;;;;;;10.50;6.68;;;;;;;4.20;100.00;101737.09;5072731;28;20040;-47
2023/12/14 10:20:53;;;;;;;10.18;6.03;;;;;;;4.24;100.00;101735.28;5073811;28;20052;-45
2023/12/14 10:23:24;;;;;;;11.35;6.25;;;;;;;4.24;100.00;101740.50;5074263;28;20105;-46
2023/12/14 10:25:54;;;;;;;9.93;5.63;;;;;;;4.23;100.00;101750.03;5074780;28;20043;-48
2023/12/14 10:28:24;;;;;;;10.50;6.10;;;;;;;4.27;100.00;101748.22;5073465;28;20056;-47
2023/12/14 10:30:53;;;;;;;11.23;6.65;;;;;;;4.28;100.00;101751.69;5074769;28;20056;-45
2023/12/14 10:33:26;;;;;;;12.13;6.38;;;;;;;4.31;100.00;101747.25;5074764;28;20385;-46
2023/12/14 10:35:55;;;;;;;11.80;6.00;;;;;;;4.35;100.00;101746.28;5073495;28;20047;-47
2023/12/14 10:38:27;;;;;;;10.45;6.20;;;;;;;4.38;100.00;101750.56;5074861;28;20147;-45
2023/12/14 10:40:58;;;;;;;10.23;6.18;;;;;;;4.37;100.00;101748.84;5074931;28;20045;-45
2023/12/14 10:43:28;;;;;;;10.57;5.87;;;;;;;4.36;100.00;101754.94;5071581;28;20055;-45
2023/12/14 10:46:16;;;;;;;10.43;6.20;;;;;;;4.38;100.00;101763.59;5070988;28;20483;-46
2023/12/14 10:48:46;;;;;;;11.85;6.72;;;;;;;4.37;100.00;101767.09;5074356;28;20071;-47
2023/12/14 10:51:16;;;;;;;11.15;6.55;;;;;;;4.32;100.00;101771.53;5074609;28;20056;-45
2023/12/14 10:53:47;;;;;;;11.50;6.45;;;;;;;4.25;100.00;101773.44;5074525;28;20508;-44
2023/12/14 10:56:18;;;;;;;12.85;6.90;;;;;;;4.29;100.00;101776.84;5074675;28;20131;-44
2023/12/14 10:58:48;;;;;;;10.50;6.25;;;;;;;4.26;100.00;101780.38;5074476;28;20087;-45
2023/12/14 11:01:17;;;;;;;11.93;6.75;;;;;;;4.26;100.00;101774.31;5074406;28;20043;-46
2023/12/14 11:03:46;;;;;;;10.52;6.85;;;;;;;4.24;100.00;101769.16;5074290;28;20486;-46
2023/12/14 11:06:31;;;;;;;11.50;6.97;;;;;;;4.29;100.00;101769.88;5072914;28;20048;-50
2023/12/14 11:09:05;;;;;;;12.65;6.47;;;;;;;4.36;100.00;101767.97;5074236;28;20124;-47
2023/12/14 11:11:43;;;;;;;12.52;6.60;;;;;;;4.41;100.00;101773.94;5072864;28;20458;-45
2023/12/14 11:14:13;;;;;;;12.77;7.47;;;;;;;4.49;100.00;101773.75;5073428;28;20449;-45
2023/12/14 11:16:46;;;;;;;11.80;6.28;;;;;;;4.53;100.00;101768.41;5072977;28;20098;-45
2023/12/14 11:19:24;;;;;;;12.32;6.15;;;;;;;4.57;100.00;101782.22;5073200;28;20091;-46
2023/12/14 11:22:12;;;;;;;12.13;6.35;;;;;;;4.59;100.00;101790.00;5066517;28;20062;-47